sensor_id;sensor_type;location;lat;lon;timestamp;temperature;humidity
30234;DHT22;17046;52.074;4.748;2023-02-08T00:02:25;-1.40;99.90
30234;DHT22;17046;52.074;4.748;2023-02-08T00:04:50;-1.40;99.90
30234;DHT22;17046;52.074;4.748;2023-02-08T00:07:16;-1.40;99.90
30234;DHT22;17046;52.074;4.748;2023-02-08T00:09:41;-1.40;99.90
30234;DHT22;17046;52.074;4.748;2023-02-08T00:12:07;-1.40;99.90
30234;DHT22;17046;52.074;4.748;2023-02-08T00:14:32;-1.50;99.90
30234;DHT22;17046;52.074;4.748;2023-02-08T00:16:58;-1.50;99.90
30234;DHT22;17046;52.074;4.748;2023-02-08T00:19:23;-1.60;99.90
30234;DHT22;17046;52.074;4.748;2023-02-08T00:21:49;-1.60;99.90
30234;DHT22;17046;52.074;4.748;2023-02-08T00:24:15;-1.50;99.90
30234;DHT22;17046;52.074;4.748;2023-02-08T00:26:40;-1.40;99.90
30234;DHT22;17046;52.074;4.748;2023-02-08T00:29:06;-1.30;99.90
30234;DHT22;17046;52.074;4.748;2023-02-08T00:31:31;-1.30;99.90
30234;DHT22;17046;52.074;4.748;2023-02-08T00:33:57;-1.00;99.90
30234;DHT22;17046;52.074;4.748;2023-02-08T00:36:22;-1.10;99.90
30234;DHT22;17046;52.074;4.748;2023-02-08T00:38:48;-1.00;99.90
30234;DHT22;17046;52.074;4.748;2023-02-08T00:41:13;-1.10;99.90
30234;DHT22;17046;52.074;4.748;2023-02-08T00:43:39;-1.20;99.90
30234;DHT22;17046;52.074;4.748;2023-02-08T00:46:05;-1.30;99.90
30234;DHT22;17046;52.074;4.748;2023-02-08T00:48:30;-1.30;99.90
30234;DHT22;17046;52.074;4.748;2023-02-08T00:53:22;-1.40;99.90
30234;DHT22;17046;52.074;4.748;2023-02-08T00:55:52;-1.50;99.90
30234;DHT22;17046;52.074;4.748;2023-02-08T00:58:17;-1.50;99.90
30234;DHT22;17046;52.074;4.748;2023-02-08T01:00:43;-1.50;99.90
30234;DHT22;17046;52.074;4.748;2023-02-08T01:03:09;-1.50;99.90
30234;DHT22;17046;52.074;4.748;2023-02-08T01:05:37;-1.60;99.90
30234;DHT22;17046;52.074;4.748;2023-02-08T01:08:03;-1.60;99.90
30234;DHT22;17046;52.074;4.748;2023-02-08T01:10:28;-1.60;99.90
30234;DHT22;17046;52.074;4.748;2023-02-08T01:12:54;-1.60;99.90
30234;DHT22;17046;52.074;4.748;2023-02-08T01:15:19;-1.70;99.90
30234;DHT22;17046;52.074;4.748;2023-02-08T01:17:45;-1.70;99.90
30234;DHT22;17046;52.074;4.748;2023-02-08T01:20:11;-1.70;99.90
30234;DHT22;17046;52.074;4.748;2023-02-08T01:22:36;-1.70;99.90
30234;DHT22;17046;52.074;4.748;2023-02-08T01:25:02;-1.60;99.90
30234;DHT22;17046;52.074;4.748;2023-02-08T01:27:28;-1.60;99.90
30234;DHT22;17046;52.074;4.748;2023-02-08T01:29:53;-1.60;99.90
30234;DHT22;17046;52.074;4.748;2023-02-08T01:32:19;-1.60;99.90
30234;DHT22;17046;52.074;4.748;2023-02-08T01:34:45;-1.70;99.90
30234;DHT22;17046;52.074;4.748;2023-02-08T01:37:10;-1.80;99.90
30234;DHT22;17046;52.074;4.748;2023-02-08T01:39:36;-1.80;99.90
30234;DHT22;17046;52.074;4.748;2023-02-08T01:42:01;-1.80;99.90
30234;DHT22;17046;52.074;4.748;2023-02-08T01:47:30;-1.70;99.90
30234;DHT22;17046;52.074;4.748;2023-02-08T01:49:56;-1.70;99.90
30234;DHT22;17046;52.074;4.748;2023-02-08T01:52:24;-1.70;99.90
30234;DHT22;17046;52.074;4.748;2023-02-08T01:54:57;-1.70;99.90
30234;DHT22;17046;52.074;4.748;2023-02-08T01:57:24;-1.70;99.90
30234;DHT22;17046;52.074;4.748;2023-02-08T01:59:54;-1.80;99.90
30234;DHT22;17046;52.074;4.748;2023-02-08T02:02:21;-1.80;99.90
30234;DHT22;17046;52.074;4.748;2023-02-08T02:04:48;-1.70;99.90
30234;DHT22;17046;52.074;4.748;2023-02-08T02:07:16;-1.70;99.90
30234;DHT22;17046;52.074;4.748;2023-02-08T02:09:50;-1.80;99.90
30234;DHT22;17046;52.074;4.748;2023-02-08T02:12:17;-1.80;99.90
30234;DHT22;17046;52.074;4.748;2023-02-08T02:14:44;-3.10;99.90
30234;DHT22;17046;52.074;4.748;2023-02-08T02:17:12;-2.00;99.90
30234;DHT22;17046;52.074;4.748;2023-02-08T02:23:28;-2.00;99.90
30234;DHT22;17046;52.074;4.748;2023-02-08T02:34:47;-2.00;99.90
30234;DHT22;17046;52.074;4.748;2023-02-08T02:43:15;-2.10;99.90
30234;DHT22;17046;52.074;4.748;2023-02-08T02:46:37;-2.20;99.90
30234;DHT22;17046;52.074;4.748;2023-02-08T02:49:35;-2.10;99.90
30234;DHT22;17046;52.074;4.748;2023-02-08T02:52:11;-2.20;99.90
30234;DHT22;17046;52.074;4.748;2023-02-08T02:54:43;-2.20;99.90
30234;DHT22;17046;52.074;4.748;2023-02-08T02:57:13;-2.20;99.90
30234;DHT22;17046;52.074;4.748;2023-02-08T02:59:41;-2.20;99.90
30234;DHT22;17046;52.074;4.748;2023-02-08T03:02:08;-2.20;99.90
30234;DHT22;17046;52.074;4.748;2023-02-08T03:12:33;-2.20;99.90
30234;DHT22;17046;52.074;4.748;2023-02-08T03:20:40;-2.30;99.90
30234;DHT22;17046;52.074;4.748;2023-02-08T03:23:16;-2.30;99.90
30234;DHT22;17046;52.074;4.748;2023-02-08T03:28:45;-2.30;99.90
30234;DHT22;17046;52.074;4.748;2023-02-08T03:31:25;-2.30;99.90
30234;DHT22;17046;52.074;4.748;2023-02-08T03:34:05;-2.30;99.90
30234;DHT22;17046;52.074;4.748;2023-02-08T03:36:37;-2.30;99.90
30234;DHT22;17046;52.074;4.748;2023-02-08T03:39:09;-2.30;99.90
30234;DHT22;17046;52.074;4.748;2023-02-08T03:41:38;-2.40;99.90
30234;DHT22;17046;52.074;4.748;2023-02-08T03:44:09;-2.40;99.90
30234;DHT22;17046;52.074;4.748;2023-02-08T03:46:40;-2.40;99.90
30234;DHT22;17046;52.074;4.748;2023-02-08T03:49:15;-2.50;99.90
30234;DHT22;17046;52.074;4.748;2023-02-08T03:51:43;-2.50;99.90
30234;DHT22;17046;52.074;4.748;2023-02-08T03:54:19;-2.50;99.90
30234;DHT22;17046;52.074;4.748;2023-02-08T03:56:54;-2.50;99.90
30234;DHT22;17046;52.074;4.748;2023-02-08T03:59:25;-2.50;99.90
30234;DHT22;17046;52.074;4.748;2023-02-08T04:01:58;-2.60;99.90
30234;DHT22;17046;52.074;4.748;2023-02-08T04:04:26;-2.60;99.90
30234;DHT22;17046;52.074;4.748;2023-02-08T04:06:53;-2.50;99.90
30234;DHT22;17046;52.074;4.748;2023-02-08T04:09:19;-2.50;99.90
30234;DHT22;17046;52.074;4.748;2023-02-08T04:11:44;-2.50;99.90
30234;DHT22;17046;52.074;4.748;2023-02-08T04:14:10;-2.50;99.90
30234;DHT22;17046;52.074;4.748;2023-02-08T04:16:35;-2.50;99.90
30234;DHT22;17046;52.074;4.748;2023-02-08T04:19:01;-2.60;99.90
30234;DHT22;17046;52.074;4.748;2023-02-08T04:21:26;-2.60;99.90
30234;DHT22;17046;52.074;4.748;2023-02-08T04:23:52;-2.60;99.90
30234;DHT22;17046;52.074;4.748;2023-02-08T04:26:17;-2.60;99.90
30234;DHT22;17046;52.074;4.748;2023-02-08T04:28:43;-2.50;99.90
30234;DHT22;17046;52.074;4.748;2023-02-08T04:31:09;-2.50;99.90
30234;DHT22;17046;52.074;4.748;2023-02-08T04:33:34;-2.50;99.90
30234;DHT22;17046;52.074;4.748;2023-02-08T04:36:00;-2.50;99.90
30234;DHT22;17046;52.074;4.748;2023-02-08T04:38:25;-2.40;99.90
30234;DHT22;17046;52.074;4.748;2023-02-08T04:40:51;-2.40;99.90
30234;DHT22;17046;52.074;4.748;2023-02-08T04:43:16;-2.40;99.90
30234;DHT22;17046;52.074;4.748;2023-02-08T04:45:42;-2.40;99.90
30234;DHT22;17046;52.074;4.748;2023-02-08T04:48:07;-2.30;99.90
30234;DHT22;17046;52.074;4.748;2023-02-08T04:50:34;-2.30;99.90
30234;DHT22;17046;52.074;4.748;2023-02-08T04:52:59;-2.30;99.90
30234;DHT22;17046;52.074;4.748;2023-02-08T04:55:25;-2.30;99.90
30234;DHT22;17046;52.074;4.748;2023-02-08T04:57:50;-2.30;99.90
30234;DHT22;17046;52.074;4.748;2023-02-08T05:00:16;-2.30;99.90
30234;DHT22;17046;52.074;4.748;2023-02-08T05:02:42;-2.30;99.90
30234;DHT22;17046;52.074;4.748;2023-02-08T05:05:07;-2.30;99.90
30234;DHT22;17046;52.074;4.748;2023-02-08T05:07:33;-2.40;99.90
30234;DHT22;17046;52.074;4.748;2023-02-08T05:09:59;-2.30;99.90
30234;DHT22;17046;52.074;4.748;2023-02-08T05:12:24;-2.40;99.90
30234;DHT22;17046;52.074;4.748;2023-02-08T05:14:50;-2.40;99.90
30234;DHT22;17046;52.074;4.748;2023-02-08T05:17:15;-2.40;99.90
30234;DHT22;17046;52.074;4.748;2023-02-08T05:19:41;-2.40;99.90
30234;DHT22;17046;52.074;4.748;2023-02-08T05:22:07;-2.40;99.90
30234;DHT22;17046;52.074;4.748;2023-02-08T05:24:32;-2.30;99.90
30234;DHT22;17046;52.074;4.748;2023-02-08T05:26:58;-2.30;99.90
30234;DHT22;17046;52.074;4.748;2023-02-08T05:29:23;-2.30;99.90
30234;DHT22;17046;52.074;4.748;2023-02-08T05:31:49;-2.30;99.90
30234;DHT22;17046;52.074;4.748;2023-02-08T05:34:14;-2.30;99.90
30234;DHT22;17046;52.074;4.748;2023-02-08T05:36:40;-2.20;99.90
30234;DHT22;17046;52.074;4.748;2023-02-08T05:39:06;-2.10;99.90
30234;DHT22;17046;52.074;4.748;2023-02-08T05:41:31;-2.10;99.90
30234;DHT22;17046;52.074;4.748;2023-02-08T05:43:57;-2.20;99.90
30234;DHT22;17046;52.074;4.748;2023-02-08T05:46:22;-2.10;99.90
30234;DHT22;17046;52.074;4.748;2023-02-08T05:48:48;-2.10;99.90
30234;DHT22;17046;52.074;4.748;2023-02-08T05:51:14;-2.20;99.90
30234;DHT22;17046;52.074;4.748;2023-02-08T05:53:39;-2.20;99.90
30234;DHT22;17046;52.074;4.748;2023-02-08T05:56:05;-2.20;99.90
30234;DHT22;17046;52.074;4.748;2023-02-08T05:58:32;-2.20;99.90
30234;DHT22;17046;52.074;4.748;2023-02-08T06:00:57;-2.10;99.90
30234;DHT22;17046;52.074;4.748;2023-02-08T06:03:23;-2.20;99.90
30234;DHT22;17046;52.074;4.748;2023-02-08T06:05:48;-2.20;99.90
30234;DHT22;17046;52.074;4.748;2023-02-08T06:08:14;-2.20;99.90
30234;DHT22;17046;52.074;4.748;2023-02-08T06:10:40;-2.20;99.90
30234;DHT22;17046;52.074;4.748;2023-02-08T06:13:05;-2.20;99.90
30234;DHT22;17046;52.074;4.748;2023-02-08T06:15:31;-2.20;99.90
30234;DHT22;17046;52.074;4.748;2023-02-08T06:17:56;-2.30;99.90
30234;DHT22;17046;52.074;4.748;2023-02-08T06:20:22;-2.30;99.90
30234;DHT22;17046;52.074;4.748;2023-02-08T06:22:47;-2.30;99.90
30234;DHT22;17046;52.074;4.748;2023-02-08T06:25:13;-2.30;99.90
30234;DHT22;17046;52.074;4.748;2023-02-08T06:27:38;-2.30;99.90
30234;DHT22;17046;52.074;4.748;2023-02-08T06:30:04;-2.30;99.90
30234;DHT22;17046;52.074;4.748;2023-02-08T06:32:31;-2.30;99.90
30234;DHT22;17046;52.074;4.748;2023-02-08T06:34:56;-2.40;99.90
30234;DHT22;17046;52.074;4.748;2023-02-08T06:37:22;-2.40;99.90
30234;DHT22;17046;52.074;4.748;2023-02-08T06:39:47;-2.40;99.90
30234;DHT22;17046;52.074;4.748;2023-02-08T06:42:13;-2.40;99.90
30234;DHT22;17046;52.074;4.748;2023-02-08T06:44:38;-2.40;99.90
30234;DHT22;17046;52.074;4.748;2023-02-08T06:47:04;-2.50;99.90
30234;DHT22;17046;52.074;4.748;2023-02-08T06:49:30;-2.50;99.90
30234;DHT22;17046;52.074;4.748;2023-02-08T06:51:55;-2.50;99.90
30234;DHT22;17046;52.074;4.748;2023-02-08T06:54:21;-2.50;99.90
30234;DHT22;17046;52.074;4.748;2023-02-08T06:56:47;-2.50;99.90
30234;DHT22;17046;52.074;4.748;2023-02-08T06:59:12;-2.50;99.90
30234;DHT22;17046;52.074;4.748;2023-02-08T07:01:38;-2.50;99.90
30234;DHT22;17046;52.074;4.748;2023-02-08T07:04:04;-2.50;99.90
30234;DHT22;17046;52.074;4.748;2023-02-08T07:06:30;-2.50;99.90
30234;DHT22;17046;52.074;4.748;2023-02-08T07:08:55;-2.50;99.90
30234;DHT22;17046;52.074;4.748;2023-02-08T07:11:21;-2.60;99.90
30234;DHT22;17046;52.074;4.748;2023-02-08T07:13:49;-2.60;99.90
30234;DHT22;17046;52.074;4.748;2023-02-08T07:16:16;-2.60;99.90
30234;DHT22;17046;52.074;4.748;2023-02-08T07:18:42;-2.60;99.90
30234;DHT22;17046;52.074;4.748;2023-02-08T07:21:08;-2.50;99.90
30234;DHT22;17046;52.074;4.748;2023-02-08T07:23:36;-2.50;99.90
30234;DHT22;17046;52.074;4.748;2023-02-08T07:26:07;-2.60;99.90
30234;DHT22;17046;52.074;4.748;2023-02-08T07:28:34;-2.50;99.90
30234;DHT22;17046;52.074;4.748;2023-02-08T07:31:05;-2.50;99.90
30234;DHT22;17046;52.074;4.748;2023-02-08T07:33:30;-2.60;99.90
30234;DHT22;17046;52.074;4.748;2023-02-08T07:35:56;-2.50;99.90
30234;DHT22;17046;52.074;4.748;2023-02-08T07:38:22;-2.50;99.90
30234;DHT22;17046;52.074;4.748;2023-02-08T07:40:47;-2.50;99.90
30234;DHT22;17046;52.074;4.748;2023-02-08T07:43:13;-2.40;99.90
30234;DHT22;17046;52.074;4.748;2023-02-08T07:45:39;-2.50;99.90
30234;DHT22;17046;52.074;4.748;2023-02-08T07:48:05;-2.40;99.90
30234;DHT22;17046;52.074;4.748;2023-02-08T07:50:31;-2.40;99.90
30234;DHT22;17046;52.074;4.748;2023-02-08T07:52:56;-2.40;99.90
30234;DHT22;17046;52.074;4.748;2023-02-08T07:55:22;-2.40;99.90
30234;DHT22;17046;52.074;4.748;2023-02-08T07:57:48;-2.30;99.90
30234;DHT22;17046;52.074;4.748;2023-02-08T08:00:16;-2.10;99.90
30234;DHT22;17046;52.074;4.748;2023-02-08T08:02:42;-2.10;99.90
30234;DHT22;17046;52.074;4.748;2023-02-08T08:05:08;-2.10;99.90
30234;DHT22;17046;52.074;4.748;2023-02-08T08:07:34;-2.00;99.90
30234;DHT22;17046;52.074;4.748;2023-02-08T08:09:59;-1.90;99.90
30234;DHT22;17046;52.074;4.748;2023-02-08T08:12:25;-1.90;99.90
30234;DHT22;17046;52.074;4.748;2023-02-08T08:14:51;-1.90;99.90
30234;DHT22;17046;52.074;4.748;2023-02-08T08:17:17;-1.90;99.90
30234;DHT22;17046;52.074;4.748;2023-02-08T08:19:43;-1.80;99.90
30234;DHT22;17046;52.074;4.748;2023-02-08T08:22:09;-1.80;99.90
30234;DHT22;17046;52.074;4.748;2023-02-08T08:24:34;-1.80;99.90
30234;DHT22;17046;52.074;4.748;2023-02-08T08:27:01;-1.80;99.90
30234;DHT22;17046;52.074;4.748;2023-02-08T08:29:27;-1.80;99.90
30234;DHT22;17046;52.074;4.748;2023-02-08T08:31:53;-1.80;99.90
30234;DHT22;17046;52.074;4.748;2023-02-08T08:34:18;-1.70;99.90
30234;DHT22;17046;52.074;4.748;2023-02-08T08:36:44;-1.60;99.90
30234;DHT22;17046;52.074;4.748;2023-02-08T08:39:10;-1.60;99.90
30234;DHT22;17046;52.074;4.748;2023-02-08T08:41:35;-1.50;99.90
30234;DHT22;17046;52.074;4.748;2023-02-08T08:44:02;-1.40;99.90
30234;DHT22;17046;52.074;4.748;2023-02-08T08:46:27;-1.40;99.90
30234;DHT22;17046;52.074;4.748;2023-02-08T08:48:53;-1.30;99.90
30234;DHT22;17046;52.074;4.748;2023-02-08T08:51:19;-1.20;99.90
30234;DHT22;17046;52.074;4.748;2023-02-08T08:53:44;-1.20;99.90
30234;DHT22;17046;52.074;4.748;2023-02-08T08:56:10;-1.10;99.90
30234;DHT22;17046;52.074;4.748;2023-02-08T08:58:35;-1.00;99.90
30234;DHT22;17046;52.074;4.748;2023-02-08T09:01:01;-1.00;99.90
30234;DHT22;17046;52.074;4.748;2023-02-08T09:03:27;-0.90;99.90
30234;DHT22;17046;52.074;4.748;2023-02-08T09:05:53;-0.90;99.90
30234;DHT22;17046;52.074;4.748;2023-02-08T09:08:18;-0.80;99.90
30234;DHT22;17046;52.074;4.748;2023-02-08T09:10:44;-0.70;99.90
30234;DHT22;17046;52.074;4.748;2023-02-08T09:13:10;-0.60;99.90
30234;DHT22;17046;52.074;4.748;2023-02-08T09:15:39;-0.60;99.90
30234;DHT22;17046;52.074;4.748;2023-02-08T09:18:05;-0.50;99.90
30234;DHT22;17046;52.074;4.748;2023-02-08T09:20:30;-0.40;99.90
30234;DHT22;17046;52.074;4.748;2023-02-08T09:25:22;-0.30;99.90
30234;DHT22;17046;52.074;4.748;2023-02-08T09:27:47;-0.20;99.90
30234;DHT22;17046;52.074;4.748;2023-02-08T09:30:13;-0.20;99.90
30234;DHT22;17046;52.074;4.748;2023-02-08T09:32:39;-0.10;99.90
30234;DHT22;17046;52.074;4.748;2023-02-08T09:35:06;0.00;99.90
30234;DHT22;17046;52.074;4.748;2023-02-08T09:37:32;0.00;99.90
30234;DHT22;17046;52.074;4.748;2023-02-08T09:39:57;0.10;97.90
30234;DHT22;17046;52.074;4.748;2023-02-08T09:42:28;0.20;98.70
30234;DHT22;17046;52.074;4.748;2023-02-08T09:45:46;0.30;98.50
30234;DHT22;17046;52.074;4.748;2023-02-08T09:48:25;0.30;99.90
30234;DHT22;17046;52.074;4.748;2023-02-08T09:50:56;0.40;99.90
30234;DHT22;17046;52.074;4.748;2023-02-08T09:53:33;0.50;94.50
30234;DHT22;17046;52.074;4.748;2023-02-08T09:56:03;0.60;93.70
30234;DHT22;17046;52.074;4.748;2023-02-08T09:58:36;0.70;89.40
30234;DHT22;17046;52.074;4.748;2023-02-08T10:01:04;0.80;79.10
30234;DHT22;17046;52.074;4.748;2023-02-08T10:03:42;0.80;60.30
30234;DHT22;17046;52.074;4.748;2023-02-08T10:06:16;0.80;57.80
30234;DHT22;17046;52.074;4.748;2023-02-08T10:08:43;1.00;62.30
30234;DHT22;17046;52.074;4.748;2023-02-08T10:20:02;1.40;21.70
30234;DHT22;17046;52.074;4.748;2023-02-08T10:33:09;1.70;1.00
30234;DHT22;17046;52.074;4.748;2023-02-08T10:35:45;1.80;1.00
30234;DHT22;17046;52.074;4.748;2023-02-08T10:38:27;1.80;1.00
30234;DHT22;17046;52.074;4.748;2023-02-08T10:40:58;1.90;1.00
30234;DHT22;17046;52.074;4.748;2023-02-08T10:46:28;2.00;1.00
30234;DHT22;17046;52.074;4.748;2023-02-08T10:49:11;2.10;1.00
30234;DHT22;17046;52.074;4.748;2023-02-08T10:51:39;2.20;1.00
30234;DHT22;17046;52.074;4.748;2023-02-08T10:54:08;2.20;1.00
30234;DHT22;17046;52.074;4.748;2023-02-08T10:56:49;2.20;1.00
30234;DHT22;17046;52.074;4.748;2023-02-08T10:59:21;2.30;1.00
30234;DHT22;17046;52.074;4.748;2023-02-08T11:01:49;2.30;1.00
30234;DHT22;17046;52.074;4.748;2023-02-08T11:04:16;2.30;1.00
30234;DHT22;17046;52.074;4.748;2023-02-08T11:06:43;2.40;1.00
30234;DHT22;17046;52.074;4.748;2023-02-08T11:09:26;2.60;1.00
30234;DHT22;17046;52.074;4.748;2023-02-08T11:11:52;2.50;1.00
30234;DHT22;17046;52.074;4.748;2023-02-08T11:14:37;2.50;1.00
30234;DHT22;17046;52.074;4.748;2023-02-08T11:17:04;2.60;1.00
30234;DHT22;17046;52.074;4.748;2023-02-08T11:19:44;2.60;1.00
30234;DHT22;17046;52.074;4.748;2023-02-08T11:22:22;2.70;1.00
30234;DHT22;17046;52.074;4.748;2023-02-08T11:24:58;2.80;1.00
30234;DHT22;17046;52.074;4.748;2023-02-08T11:32:41;3.10;1.00
30234;DHT22;17046;52.074;4.748;2023-02-08T11:35:20;3.20;1.00
30234;DHT22;17046;52.074;4.748;2023-02-08T11:37:55;3.20;1.00
30234;DHT22;17046;52.074;4.748;2023-02-08T11:42:57;3.50;99.90
30234;DHT22;17046;52.074;4.748;2023-02-08T11:45:26;3.40;99.90
30234;DHT22;17046;52.074;4.748;2023-02-08T11:47:54;3.40;99.90
30234;DHT22;17046;52.074;4.748;2023-02-08T11:50:39;3.60;99.90
30234;DHT22;17046;52.074;4.748;2023-02-08T11:53:16;3.70;99.90
30234;DHT22;17046;52.074;4.748;2023-02-08T11:55:45;3.70;99.90
30234;DHT22;17046;52.074;4.748;2023-02-08T11:58:25;3.80;17.70
30234;DHT22;17046;52.074;4.748;2023-02-08T12:01:04;3.80;82.90
30234;DHT22;17046;52.074;4.748;2023-02-08T12:03:49;3.70;9.30
30234;DHT22;17046;52.074;4.748;2023-02-08T12:08:50;3.90;1.00
30234;DHT22;17046;52.074;4.748;2023-02-08T12:11:35;4.00;1.00
30234;DHT22;17046;52.074;4.748;2023-02-08T12:25:40;4.40;1.00
30234;DHT22;17046;52.074;4.748;2023-02-08T12:28:25;4.40;1.00
30234;DHT22;17046;52.074;4.748;2023-02-08T12:34:21;4.50;1.00
30234;DHT22;17046;52.074;4.748;2023-02-08T12:37:03;4.50;99.90
30234;DHT22;17046;52.074;4.748;2023-02-08T12:48:36;4.70;99.90
30234;DHT22;17046;52.074;4.748;2023-02-08T12:53:58;4.70;99.90
30234;DHT22;17046;52.074;4.748;2023-02-08T12:56:37;5.70;99.90
30234;DHT22;17046;52.074;4.748;2023-02-08T12:59:05;4.90;99.90
30234;DHT22;17046;52.074;4.748;2023-02-08T13:01:39;4.90;99.90
30234;DHT22;17046;52.074;4.748;2023-02-08T13:04:13;4.90;99.90
30234;DHT22;17046;52.074;4.748;2023-02-08T13:06:47;4.80;99.90
30234;DHT22;17046;52.074;4.748;2023-02-08T13:09:21;4.80;99.90
30234;DHT22;17046;52.074;4.748;2023-02-08T13:12:20;4.90;99.90
30234;DHT22;17046;52.074;4.748;2023-02-08T13:14:53;4.90;1.00
30234;DHT22;17046;52.074;4.748;2023-02-08T13:17:35;5.00;99.90
30234;DHT22;17046;52.074;4.748;2023-02-08T13:20:12;5.00;99.90
30234;DHT22;17046;52.074;4.748;2023-02-08T13:22:41;5.10;99.90
30234;DHT22;17046;52.074;4.748;2023-02-08T13:25:15;5.20;99.90
30234;DHT22;17046;52.074;4.748;2023-02-08T13:27:45;5.20;99.90
30234;DHT22;17046;52.074;4.748;2023-02-08T13:30:17;5.10;99.90
30234;DHT22;17046;52.074;4.748;2023-02-08T13:32:44;5.20;99.90
30234;DHT22;17046;52.074;4.748;2023-02-08T13:35:15;5.20;99.90
30234;DHT22;17046;52.074;4.748;2023-02-08T13:37:49;5.30;99.90
30234;DHT22;17046;52.074;4.748;2023-02-08T13:40:22;5.20;99.90
30234;DHT22;17046;52.074;4.748;2023-02-08T13:43:15;5.20;99.90
30234;DHT22;17046;52.074;4.748;2023-02-08T13:45:50;5.10;99.90
30234;DHT22;17046;52.074;4.748;2023-02-08T13:48:17;5.20;99.90
30234;DHT22;17046;52.074;4.748;2023-02-08T13:50:46;5.20;99.90
30234;DHT22;17046;52.074;4.748;2023-02-08T13:53:14;5.20;99.90
30234;DHT22;17046;52.074;4.748;2023-02-08T13:55:54;5.30;99.90
30234;DHT22;17046;52.074;4.748;2023-02-08T14:03:29;5.20;99.90
30234;DHT22;17046;52.074;4.748;2023-02-08T14:06:22;5.20;99.90
30234;DHT22;17046;52.074;4.748;2023-02-08T14:08:57;5.20;99.90
30234;DHT22;17046;52.074;4.748;2023-02-08T14:11:41;5.20;99.90
30234;DHT22;17046;52.074;4.748;2023-02-08T14:14:16;5.20;99.90
30234;DHT22;17046;52.074;4.748;2023-02-08T14:19:33;5.20;99.90
30234;DHT22;17046;52.074;4.748;2023-02-08T14:22:05;5.30;99.90
30234;DHT22;17046;52.074;4.748;2023-02-08T14:24:37;5.30;99.90
30234;DHT22;17046;52.074;4.748;2023-02-08T14:27:10;5.30;99.90
30234;DHT22;17046;52.074;4.748;2023-02-08T14:29:42;5.30;99.90
30234;DHT22;17046;52.074;4.748;2023-02-08T14:32:08;5.40;99.90
30234;DHT22;17046;52.074;4.748;2023-02-08T14:34:37;5.40;99.90
30234;DHT22;17046;52.074;4.748;2023-02-08T14:39:35;5.50;99.90
30234;DHT22;17046;52.074;4.748;2023-02-08T14:42:09;5.50;99.90
30234;DHT22;17046;52.074;4.748;2023-02-08T14:50:16;5.90;99.90
30234;DHT22;17046;52.074;4.748;2023-02-08T14:58:44;5.60;99.90
30234;DHT22;17046;52.074;4.748;2023-02-08T15:01:18;5.60;99.90
30234;DHT22;17046;52.074;4.748;2023-02-08T15:03:46;5.50;1.00
30234;DHT22;17046;52.074;4.748;2023-02-08T15:09:20;5.50;99.90
30234;DHT22;17046;52.074;4.748;2023-02-08T15:11:59;5.50;1.00
30234;DHT22;17046;52.074;4.748;2023-02-08T15:14:25;5.60;99.90
30234;DHT22;17046;52.074;4.748;2023-02-08T15:16:51;5.40;99.90
30234;DHT22;17046;52.074;4.748;2023-02-08T15:19:29;5.50;99.90
30234;DHT22;17046;52.074;4.748;2023-02-08T15:24:57;5.30;1.00
30234;DHT22;17046;52.074;4.748;2023-02-08T15:27:27;5.20;1.00
30234;DHT22;17046;52.074;4.748;2023-02-08T15:29:54;5.20;1.00
30234;DHT22;17046;52.074;4.748;2023-02-08T15:32:22;5.20;1.00
30234;DHT22;17046;52.074;4.748;2023-02-08T15:35:00;5.10;1.00
30234;DHT22;17046;52.074;4.748;2023-02-08T15:37:30;5.00;1.00
30234;DHT22;17046;52.074;4.748;2023-02-08T15:39:58;5.00;1.00
30234;DHT22;17046;52.074;4.748;2023-02-08T15:42:27;5.00;1.00
30234;DHT22;17046;52.074;4.748;2023-02-08T15:44:56;5.50;1.00
30234;DHT22;17046;52.074;4.748;2023-02-08T15:47:31;4.90;1.00
30234;DHT22;17046;52.074;4.748;2023-02-08T15:49:57;5.00;1.00
30234;DHT22;17046;52.074;4.748;2023-02-08T15:52:27;4.90;1.00
30234;DHT22;17046;52.074;4.748;2023-02-08T15:54:54;5.00;1.00
30234;DHT22;17046;52.074;4.748;2023-02-08T15:57:41;4.90;1.00
30234;DHT22;17046;52.074;4.748;2023-02-08T16:00:19;4.80;1.00
30234;DHT22;17046;52.074;4.748;2023-02-08T16:02:55;4.80;1.00
30234;DHT22;17046;52.074;4.748;2023-02-08T16:05:24;4.70;1.00
30234;DHT22;17046;52.074;4.748;2023-02-08T16:07:50;4.50;1.00
30234;DHT22;17046;52.074;4.748;2023-02-08T16:10:23;4.40;1.00
30234;DHT22;17046;52.074;4.748;2023-02-08T16:13:13;4.40;1.00
30234;DHT22;17046;52.074;4.748;2023-02-08T16:15:45;4.30;1.00
30234;DHT22;17046;52.074;4.748;2023-02-08T16:18:43;4.20;1.00
30234;DHT22;17046;52.074;4.748;2023-02-08T16:21:35;4.10;1.00
30234;DHT22;17046;52.074;4.748;2023-02-08T16:27:01;3.90;1.00
30234;DHT22;17046;52.074;4.748;2023-02-08T16:29:37;3.90;7.60
30234;DHT22;17046;52.074;4.748;2023-02-08T16:32:06;3.90;95.30
30234;DHT22;17046;52.074;4.748;2023-02-08T16:34:34;3.80;99.90
30234;DHT22;17046;52.074;4.748;2023-02-08T16:37:03;3.70;55.90
30234;DHT22;17046;52.074;4.748;2023-02-08T16:47:54;3.30;99.90
30234;DHT22;17046;52.074;4.748;2023-02-08T16:50:27;3.10;99.90
30234;DHT22;17046;52.074;4.748;2023-02-08T16:53:01;3.10;99.90
30234;DHT22;17046;52.074;4.748;2023-02-08T16:55:29;3.10;99.90
30234;DHT22;17046;52.074;4.748;2023-02-08T16:57:56;3.00;99.90
30234;DHT22;17046;52.074;4.748;2023-02-08T17:00:31;2.90;99.90
30234;DHT22;17046;52.074;4.748;2023-02-08T17:02:57;2.70;99.90
30234;DHT22;17046;52.074;4.748;2023-02-08T17:05:28;2.70;99.90
30234;DHT22;17046;52.074;4.748;2023-02-08T17:07:54;2.60;99.90
30234;DHT22;17046;52.074;4.748;2023-02-08T17:10:26;2.50;99.90
30234;DHT22;17046;52.074;4.748;2023-02-08T17:12:52;2.50;99.90
30234;DHT22;17046;52.074;4.748;2023-02-08T17:15:18;2.40;1.00
30234;DHT22;17046;52.074;4.748;2023-02-08T17:17:46;2.40;1.00
30234;DHT22;17046;52.074;4.748;2023-02-08T17:20:23;2.50;1.00
30234;DHT22;17046;52.074;4.748;2023-02-08T17:22:50;2.50;1.00
30234;DHT22;17046;52.074;4.748;2023-02-08T17:25:17;2.40;99.90
30234;DHT22;17046;52.074;4.748;2023-02-08T17:27:52;2.40;1.00
30234;DHT22;17046;52.074;4.748;2023-02-08T17:30:39;2.30;1.00
30234;DHT22;17046;52.074;4.748;2023-02-08T17:33:06;2.20;1.00
30234;DHT22;17046;52.074;4.748;2023-02-08T17:35:33;2.10;1.00
30234;DHT22;17046;52.074;4.748;2023-02-08T17:37:59;2.00;1.00
30234;DHT22;17046;52.074;4.748;2023-02-08T17:40:28;1.00;1.00
30234;DHT22;17046;52.074;4.748;2023-02-08T17:42:55;1.90;1.00
30234;DHT22;17046;52.074;4.748;2023-02-08T17:45:21;1.80;1.00
30234;DHT22;17046;52.074;4.748;2023-02-08T17:47:47;1.70;1.00
30234;DHT22;17046;52.074;4.748;2023-02-08T17:50:14;1.70;1.00
30234;DHT22;17046;52.074;4.748;2023-02-08T17:52:40;1.70;1.00
30234;DHT22;17046;52.074;4.748;2023-02-08T17:55:09;1.70;1.00
30234;DHT22;17046;52.074;4.748;2023-02-08T17:57:36;1.70;1.00
30234;DHT22;17046;52.074;4.748;2023-02-08T18:00:05;1.70;1.00
30234;DHT22;17046;52.074;4.748;2023-02-08T18:02:32;1.80;1.00
30234;DHT22;17046;52.074;4.748;2023-02-08T18:04:58;1.80;1.00
30234;DHT22;17046;52.074;4.748;2023-02-08T18:07:23;1.80;1.00
30234;DHT22;17046;52.074;4.748;2023-02-08T18:09:49;2.00;1.00
30234;DHT22;17046;52.074;4.748;2023-02-08T18:12:14;2.00;99.90
30234;DHT22;17046;52.074;4.748;2023-02-08T18:14:40;2.00;99.90
30234;DHT22;17046;52.074;4.748;2023-02-08T18:17:06;2.00;99.90